sensor_id;sensor_type;location;lat;lon;timestamp;P1;durP1;ratioP1;P2;durP2;ratioP2
7683;SDS011;3884;48.616;12.872;2023-09-08T00:01:35;6.30;;;5.30;;
7683;SDS011;3884;48.616;12.872;2023-09-08T00:04:03;5.97;;;5.27;;
7683;SDS011;3884;48.616;12.872;2023-09-08T00:06:32;7.37;;;5.03;;
7683;SDS011;3884;48.616;12.872;2023-09-08T00:09:02;7.73;;;5.00;;
7683;SDS011;3884;48.616;12.872;2023-09-08T00:11:30;5.80;;;5.20;;
7683;SDS011;3884;48.616;12.872;2023-09-08T00:13:58;6.43;;;5.07;;
7683;SDS011;3884;48.616;12.872;2023-09-08T00:16:30;5.87;;;5.27;;
7683;SDS011;3884;48.616;12.872;2023-09-08T00:18:58;6.60;;;5.10;;
7683;SDS011;3884;48.616;12.872;2023-09-08T00:21:26;5.40;;;4.90;;
7683;SDS011;3884;48.616;12.872;2023-09-08T00:23:53;9.07;;;5.23;;
7683;SDS011;3884;48.616;12.872;2023-09-08T00:26:21;5.23;;;4.73;;
7683;SDS011;3884;48.616;12.872;2023-09-08T00:28:49;7.33;;;5.10;;
7683;SDS011;3884;48.616;12.872;2023-09-08T00:31:17;5.80;;;4.83;;
7683;SDS011;3884;48.616;12.872;2023-09-08T00:33:52;7.33;;;4.77;;
7683;SDS011;3884;48.616;12.872;2023-09-08T00:36:27;5.83;;;5.10;;
7683;SDS011;3884;48.616;12.872;2023-09-08T00:38:55;5.53;;;5.03;;
7683;SDS011;3884;48.616;12.872;2023-09-08T00:41:22;5.83;;;5.27;;
7683;SDS011;3884;48.616;12.872;2023-09-08T00:43:51;5.53;;;5.03;;
7683;SDS011;3884;48.616;12.872;2023-09-08T00:46:18;5.70;;;5.20;;
7683;SDS011;3884;48.616;12.872;2023-09-08T00:48:46;6.67;;;5.97;;
7683;SDS011;3884;48.616;12.872;2023-09-08T00:51:23;6.07;;;5.47;;
7683;SDS011;3884;48.616;12.872;2023-09-08T00:53:51;6.10;;;4.87;;
7683;SDS011;3884;48.616;12.872;2023-09-08T00:56:23;6.00;;;5.23;;
7683;SDS011;3884;48.616;12.872;2023-09-08T00:58:51;6.10;;;5.50;;
7683;SDS011;3884;48.616;12.872;2023-09-08T01:01:18;6.50;;;5.13;;
7683;SDS011;3884;48.616;12.872;2023-09-08T01:03:48;5.70;;;5.20;;
7683;SDS011;3884;48.616;12.872;2023-09-08T01:06:15;6.27;;;5.00;;
7683;SDS011;3884;48.616;12.872;2023-09-08T01:08:44;5.80;;;5.23;;
7683;SDS011;3884;48.616;12.872;2023-09-08T01:11:12;6.67;;;5.47;;
7683;SDS011;3884;48.616;12.872;2023-09-08T01:13:41;5.30;;;4.80;;
7683;SDS011;3884;48.616;12.872;2023-09-08T01:16:10;7.03;;;5.03;;
7683;SDS011;3884;48.616;12.872;2023-09-08T01:18:40;6.37;;;5.30;;
7683;SDS011;3884;48.616;12.872;2023-09-08T01:21:18;7.50;;;5.47;;
7683;SDS011;3884;48.616;12.872;2023-09-08T01:24:11;6.93;;;6.23;;
7683;SDS011;3884;48.616;12.872;2023-09-08T01:26:55;7.20;;;5.97;;
7683;SDS011;3884;48.616;12.872;2023-09-08T01:29:23;5.90;;;5.40;;
7683;SDS011;3884;48.616;12.872;2023-09-08T01:31:52;6.57;;;5.77;;
7683;SDS011;3884;48.616;12.872;2023-09-08T01:34:20;6.90;;;5.37;;
7683;SDS011;3884;48.616;12.872;2023-09-08T01:36:56;6.00;;;5.20;;
7683;SDS011;3884;48.616;12.872;2023-09-08T01:39:26;6.50;;;5.70;;
7683;SDS011;3884;48.616;12.872;2023-09-08T01:41:53;6.40;;;5.80;;
7683;SDS011;3884;48.616;12.872;2023-09-08T01:44:27;6.10;;;5.50;;
7683;SDS011;3884;48.616;12.872;2023-09-08T01:46:55;6.57;;;5.97;;
7683;SDS011;3884;48.616;12.872;2023-09-08T01:49:23;7.33;;;6.10;;
7683;SDS011;3884;48.616;12.872;2023-09-08T01:51:59;7.80;;;6.13;;
7683;SDS011;3884;48.616;12.872;2023-09-08T01:54:27;6.53;;;5.93;;
7683;SDS011;3884;48.616;12.872;2023-09-08T01:56:56;6.20;;;5.60;;
7683;SDS011;3884;48.616;12.872;2023-09-08T01:59:29;6.40;;;5.80;;
7683;SDS011;3884;48.616;12.872;2023-09-08T02:01:57;6.17;;;5.37;;
7683;SDS011;3884;48.616;12.872;2023-09-08T02:04:24;6.43;;;5.80;;
7683;SDS011;3884;48.616;12.872;2023-09-08T02:06:51;6.63;;;5.87;;
7683;SDS011;3884;48.616;12.872;2023-09-08T02:09:19;10.40;;;5.70;;
7683;SDS011;3884;48.616;12.872;2023-09-08T02:11:46;6.80;;;6.03;;
7683;SDS011;3884;48.616;12.872;2023-09-08T02:14:13;6.23;;;5.63;;
7683;SDS011;3884;48.616;12.872;2023-09-08T02:16:44;6.23;;;5.63;;
7683;SDS011;3884;48.616;12.872;2023-09-08T02:19:13;6.73;;;6.00;;
7683;SDS011;3884;48.616;12.872;2023-09-08T02:21:41;7.30;;;5.50;;
7683;SDS011;3884;48.616;12.872;2023-09-08T02:24:10;7.73;;;6.37;;
7683;SDS011;3884;48.616;12.872;2023-09-08T02:26:37;6.97;;;6.03;;
7683;SDS011;3884;48.616;12.872;2023-09-08T02:29:05;9.13;;;6.30;;
7683;SDS011;3884;48.616;12.872;2023-09-08T02:31:32;5.90;;;5.33;;
7683;SDS011;3884;48.616;12.872;2023-09-08T02:34:04;7.90;;;6.03;;
7683;SDS011;3884;48.616;12.872;2023-09-08T02:36:31;6.87;;;5.63;;
7683;SDS011;3884;48.616;12.872;2023-09-08T02:39:00;5.90;;;4.93;;
7683;SDS011;3884;48.616;12.872;2023-09-08T02:41:27;5.87;;;5.37;;
7683;SDS011;3884;48.616;12.872;2023-09-08T02:43:56;7.03;;;5.50;;
7683;SDS011;3884;48.616;12.872;2023-09-08T02:46:23;6.70;;;5.60;;
7683;SDS011;3884;48.616;12.872;2023-09-08T02:48:52;6.03;;;5.43;;
7683;SDS011;3884;48.616;12.872;2023-09-08T02:51:22;6.97;;;5.57;;
7683;SDS011;3884;48.616;12.872;2023-09-08T02:53:50;7.83;;;5.87;;
7683;SDS011;3884;48.616;12.872;2023-09-08T02:56:17;6.40;;;5.80;;
7683;SDS011;3884;48.616;12.872;2023-09-08T02:58:46;7.60;;;6.70;;
7683;SDS011;3884;48.616;12.872;2023-09-08T03:01:15;7.40;;;6.03;;
7683;SDS011;3884;48.616;12.872;2023-09-08T03:03:45;6.87;;;6.00;;
7683;SDS011;3884;48.616;12.872;2023-09-08T03:06:15;7.03;;;6.33;;
7683;SDS011;3884;48.616;12.872;2023-09-08T03:08:46;7.13;;;5.93;;
7683;SDS011;3884;48.616;12.872;2023-09-08T03:11:14;6.27;;;5.63;;
7683;SDS011;3884;48.616;12.872;2023-09-08T03:13:41;6.33;;;5.73;;
7683;SDS011;3884;48.616;12.872;2023-09-08T03:16:09;6.70;;;6.00;;
7683;SDS011;3884;48.616;12.872;2023-09-08T03:18:38;6.90;;;5.70;;
7683;SDS011;3884;48.616;12.872;2023-09-08T03:21:06;6.63;;;5.70;;
7683;SDS011;3884;48.616;12.872;2023-09-08T03:23:37;6.67;;;5.63;;
7683;SDS011;3884;48.616;12.872;2023-09-08T03:26:05;8.40;;;5.90;;
7683;SDS011;3884;48.616;12.872;2023-09-08T03:28:34;6.00;;;5.40;;
7683;SDS011;3884;48.616;12.872;2023-09-08T03:31:02;6.90;;;6.17;;
7683;SDS011;3884;48.616;12.872;2023-09-08T03:33:32;6.03;;;5.10;;
7683;SDS011;3884;48.616;12.872;2023-09-08T03:35:59;6.10;;;5.57;;
7683;SDS011;3884;48.616;12.872;2023-09-08T03:38:28;6.53;;;5.80;;
7683;SDS011;3884;48.616;12.872;2023-09-08T03:40:56;6.57;;;5.97;;
7683;SDS011;3884;48.616;12.872;2023-09-08T03:43:30;5.60;;;5.10;;
7683;SDS011;3884;48.616;12.872;2023-09-08T03:45:57;6.73;;;5.97;;
7683;SDS011;3884;48.616;12.872;2023-09-08T03:48:25;8.53;;;5.83;;
7683;SDS011;3884;48.616;12.872;2023-09-08T03:50:53;7.63;;;5.83;;
7683;SDS011;3884;48.616;12.872;2023-09-08T03:53:24;6.20;;;5.47;;
7683;SDS011;3884;48.616;12.872;2023-09-08T03:55:54;9.23;;;5.50;;
7683;SDS011;3884;48.616;12.872;2023-09-08T03:58:21;7.43;;;5.70;;
7683;SDS011;3884;48.616;12.872;2023-09-08T04:00:54;9.10;;;5.70;;
7683;SDS011;3884;48.616;12.872;2023-09-08T04:03:21;5.80;;;5.30;;
7683;SDS011;3884;48.616;12.872;2023-09-08T04:05:48;5.37;;;4.87;;
7683;SDS011;3884;48.616;12.872;2023-09-08T04:08:15;6.00;;;5.40;;
7683;SDS011;3884;48.616;12.872;2023-09-08T04:10:43;5.93;;;5.33;;
7683;SDS011;3884;48.616;12.872;2023-09-08T04:13:10;6.80;;;5.33;;
7683;SDS011;3884;48.616;12.872;2023-09-08T04:15:38;6.60;;;5.43;;
7683;SDS011;3884;48.616;12.872;2023-09-08T04:18:07;6.40;;;5.27;;
7683;SDS011;3884;48.616;12.872;2023-09-08T04:20:34;6.50;;;4.97;;
7683;SDS011;3884;48.616;12.872;2023-09-08T04:23:02;6.17;;;5.57;;
7683;SDS011;3884;48.616;12.872;2023-09-08T04:25:29;6.57;;;5.97;;
7683;SDS011;3884;48.616;12.872;2023-09-08T04:27:57;6.63;;;5.83;;
7683;SDS011;3884;48.616;12.872;2023-09-08T04:30:25;6.23;;;5.73;;
7683;SDS011;3884;48.616;12.872;2023-09-08T04:32:53;6.03;;;5.53;;
7683;SDS011;3884;48.616;12.872;2023-09-08T04:35:22;6.57;;;5.97;;
7683;SDS011;3884;48.616;12.872;2023-09-08T04:37:49;7.63;;;5.13;;
7683;SDS011;3884;48.616;12.872;2023-09-08T04:40:24;7.07;;;5.53;;
7683;SDS011;3884;48.616;12.872;2023-09-08T04:42:52;5.47;;;4.97;;
7683;SDS011;3884;48.616;12.872;2023-09-08T04:45:19;6.00;;;5.40;;
7683;SDS011;3884;48.616;12.872;2023-09-08T04:47:48;5.83;;;4.97;;
7683;SDS011;3884;48.616;12.872;2023-09-08T04:50:17;8.73;;;6.00;;
7683;SDS011;3884;48.616;12.872;2023-09-08T04:52:46;6.00;;;5.40;;
7683;SDS011;3884;48.616;12.872;2023-09-08T04:55:16;6.13;;;5.53;;
7683;SDS011;3884;48.616;12.872;2023-09-08T04:57:45;6.33;;;5.73;;
7683;SDS011;3884;48.616;12.872;2023-09-08T05:00:13;6.20;;;5.23;;
7683;SDS011;3884;48.616;12.872;2023-09-08T05:02:43;5.40;;;4.90;;
7683;SDS011;3884;48.616;12.872;2023-09-08T05:05:11;5.63;;;4.97;;
7683;SDS011;3884;48.616;12.872;2023-09-08T05:07:40;5.13;;;4.73;;
7683;SDS011;3884;48.616;12.872;2023-09-08T05:10:12;6.90;;;5.03;;
7683;SDS011;3884;48.616;12.872;2023-09-08T05:12:43;5.77;;;5.27;;
7683;SDS011;3884;48.616;12.872;2023-09-08T05:15:11;5.53;;;4.93;;
7683;SDS011;3884;48.616;12.872;2023-09-08T05:17:44;6.30;;;4.97;;
7683;SDS011;3884;48.616;12.872;2023-09-08T05:20:12;7.87;;;5.57;;
7683;SDS011;3884;48.616;12.872;2023-09-08T05:22:40;5.77;;;5.27;;
7683;SDS011;3884;48.616;12.872;2023-09-08T05:25:08;5.77;;;5.17;;
7683;SDS011;3884;48.616;12.872;2023-09-08T05:27:39;6.00;;;5.30;;
7683;SDS011;3884;48.616;12.872;2023-09-08T05:30:07;6.97;;;5.57;;
7683;SDS011;3884;48.616;12.872;2023-09-08T05:32:36;7.27;;;5.33;;
7683;SDS011;3884;48.616;12.872;2023-09-08T05:35:04;9.20;;;6.00;;
7683;SDS011;3884;48.616;12.872;2023-09-08T05:37:33;6.03;;;5.50;;
7683;SDS011;3884;48.616;12.872;2023-09-08T05:40:00;10.87;;;6.50;;
7683;SDS011;3884;48.616;12.872;2023-09-08T05:42:28;5.77;;;5.20;;
7683;SDS011;3884;48.616;12.872;2023-09-08T05:45:05;6.37;;;5.40;;
7683;SDS011;3884;48.616;12.872;2023-09-08T05:47:33;6.47;;;5.87;;
7683;SDS011;3884;48.616;12.872;2023-09-08T05:50:02;8.10;;;6.40;;
7683;SDS011;3884;48.616;12.872;2023-09-08T05:52:31;9.00;;;6.07;;
7683;SDS011;3884;48.616;12.872;2023-09-08T05:55:00;7.00;;;5.60;;
7683;SDS011;3884;48.616;12.872;2023-09-08T05:57:28;7.33;;;5.73;;
7683;SDS011;3884;48.616;12.872;2023-09-08T05:59:56;6.67;;;6.00;;
7683;SDS011;3884;48.616;12.872;2023-09-08T06:02:24;8.17;;;6.73;;
7683;SDS011;3884;48.616;12.872;2023-09-08T06:04:51;7.83;;;6.90;;
7683;SDS011;3884;48.616;12.872;2023-09-08T06:07:18;8.73;;;7.80;;
7683;SDS011;3884;48.616;12.872;2023-09-08T06:09:45;8.40;;;7.60;;
7683;SDS011;3884;48.616;12.872;2023-09-08T06:12:12;8.17;;;7.37;;
7683;SDS011;3884;48.616;12.872;2023-09-08T06:14:39;9.07;;;8.17;;
7683;SDS011;3884;48.616;12.872;2023-09-08T06:17:06;10.30;;;9.03;;
7683;SDS011;3884;48.616;12.872;2023-09-08T06:19:35;9.97;;;7.80;;
7683;SDS011;3884;48.616;12.872;2023-09-08T06:22:02;8.30;;;7.50;;
7683;SDS011;3884;48.616;12.872;2023-09-08T06:24:30;8.57;;;7.63;;
7683;SDS011;3884;48.616;12.872;2023-09-08T06:26:57;9.47;;;8.10;;
7683;SDS011;3884;48.616;12.872;2023-09-08T06:29:24;8.10;;;7.30;;
7683;SDS011;3884;48.616;12.872;2023-09-08T06:31:51;8.97;;;8.07;;
7683;SDS011;3884;48.616;12.872;2023-09-08T06:34:18;8.40;;;7.70;;
7683;SDS011;3884;48.616;12.872;2023-09-08T06:36:48;10.60;;;8.40;;
7683;SDS011;3884;48.616;12.872;2023-09-08T06:39:16;9.03;;;8.13;;
7683;SDS011;3884;48.616;12.872;2023-09-08T06:41:43;10.77;;;8.50;;
7683;SDS011;3884;48.616;12.872;2023-09-08T06:44:13;10.57;;;9.57;;
7683;SDS011;3884;48.616;12.872;2023-09-08T06:46:40;9.83;;;8.80;;
7683;SDS011;3884;48.616;12.872;2023-09-08T06:49:07;10.73;;;8.60;;
7683;SDS011;3884;48.616;12.872;2023-09-08T06:51:35;10.10;;;9.10;;
7683;SDS011;3884;48.616;12.872;2023-09-08T06:54:05;9.93;;;8.50;;
7683;SDS011;3884;48.616;12.872;2023-09-08T06:56:36;9.03;;;8.07;;
7683;SDS011;3884;48.616;12.872;2023-09-08T06:59:05;9.07;;;8.10;;
7683;SDS011;3884;48.616;12.872;2023-09-08T07:01:32;9.00;;;7.43;;
7683;SDS011;3884;48.616;12.872;2023-09-08T07:03:59;9.67;;;8.40;;
7683;SDS011;3884;48.616;12.872;2023-09-08T07:06:26;9.20;;;8.30;;
7683;SDS011;3884;48.616;12.872;2023-09-08T07:08:55;13.70;;;8.40;;
7683;SDS011;3884;48.616;12.872;2023-09-08T07:11:24;9.83;;;7.60;;
7683;SDS011;3884;48.616;12.872;2023-09-08T07:13:52;11.03;;;7.73;;
7683;SDS011;3884;48.616;12.872;2023-09-08T07:16:18;8.77;;;7.00;;
7683;SDS011;3884;48.616;12.872;2023-09-08T07:18:45;8.20;;;6.97;;
7683;SDS011;3884;48.616;12.872;2023-09-08T07:21:12;7.63;;;6.83;;
7683;SDS011;3884;48.616;12.872;2023-09-08T07:23:39;7.50;;;6.83;;
7683;SDS011;3884;48.616;12.872;2023-09-08T07:26:08;8.10;;;7.40;;
7683;SDS011;3884;48.616;12.872;2023-09-08T07:28:36;7.73;;;7.03;;
7683;SDS011;3884;48.616;12.872;2023-09-08T07:31:06;8.07;;;7.27;;
7683;SDS011;3884;48.616;12.872;2023-09-08T07:33:36;8.13;;;6.90;;
7683;SDS011;3884;48.616;12.872;2023-09-08T07:36:04;7.70;;;6.90;;
7683;SDS011;3884;48.616;12.872;2023-09-08T07:38:31;9.07;;;7.20;;
7683;SDS011;3884;48.616;12.872;2023-09-08T07:40:59;7.07;;;6.40;;
7683;SDS011;3884;48.616;12.872;2023-09-08T07:43:28;9.20;;;7.47;;
7683;SDS011;3884;48.616;12.872;2023-09-08T07:45:56;7.77;;;6.37;;
7683;SDS011;3884;48.616;12.872;2023-09-08T07:48:23;6.37;;;5.77;;
7683;SDS011;3884;48.616;12.872;2023-09-08T07:50:50;7.23;;;6.10;;
7683;SDS011;3884;48.616;12.872;2023-09-08T07:53:17;10.47;;;6.37;;
7683;SDS011;3884;48.616;12.872;2023-09-08T07:55:43;6.97;;;6.23;;
7683;SDS011;3884;48.616;12.872;2023-09-08T07:58:10;7.87;;;5.60;;
7683;SDS011;3884;48.616;12.872;2023-09-08T08:00:37;10.93;;;5.70;;
7683;SDS011;3884;48.616;12.872;2023-09-08T08:03:06;5.87;;;5.00;;
7683;SDS011;3884;48.616;12.872;2023-09-08T08:05:33;7.10;;;5.77;;
7683;SDS011;3884;48.616;12.872;2023-09-08T08:08:00;6.67;;;4.90;;
7683;SDS011;3884;48.616;12.872;2023-09-08T08:10:27;10.77;;;6.03;;
7683;SDS011;3884;48.616;12.872;2023-09-08T08:12:55;8.43;;;5.40;;
7683;SDS011;3884;48.616;12.872;2023-09-08T08:15:22;5.33;;;4.83;;
7683;SDS011;3884;48.616;12.872;2023-09-08T08:18:00;6.37;;;4.97;;
7683;SDS011;3884;48.616;12.872;2023-09-08T08:20:28;6.33;;;4.90;;
7683;SDS011;3884;48.616;12.872;2023-09-08T08:22:59;5.80;;;5.20;;
7683;SDS011;3884;48.616;12.872;2023-09-08T08:25:26;5.27;;;4.53;;
7683;SDS011;3884;48.616;12.872;2023-09-08T08:27:53;5.73;;;5.10;;
7683;SDS011;3884;48.616;12.872;2023-09-08T08:30:21;5.57;;;4.80;;
7683;SDS011;3884;48.616;12.872;2023-09-08T08:32:48;5.63;;;5.13;;
7683;SDS011;3884;48.616;12.872;2023-09-08T08:35:16;9.50;;;5.10;;
7683;SDS011;3884;48.616;12.872;2023-09-08T08:37:44;6.20;;;5.20;;
7683;SDS011;3884;48.616;12.872;2023-09-08T08:40:12;6.00;;;4.90;;
7683;SDS011;3884;48.616;12.872;2023-09-08T08:42:39;7.23;;;5.13;;
7683;SDS011;3884;48.616;12.872;2023-09-08T08:45:07;5.50;;;5.00;;
7683;SDS011;3884;48.616;12.872;2023-09-08T08:47:34;5.90;;;5.30;;
7683;SDS011;3884;48.616;12.872;2023-09-08T08:50:01;8.90;;;5.40;;
7683;SDS011;3884;48.616;12.872;2023-09-08T08:52:29;6.53;;;5.30;;
7683;SDS011;3884;48.616;12.872;2023-09-08T08:54:57;7.73;;;5.13;;
7683;SDS011;3884;48.616;12.872;2023-09-08T08:57:26;6.83;;;5.07;;
7683;SDS011;3884;48.616;12.872;2023-09-08T08:59:53;8.37;;;5.53;;
7683;SDS011;3884;48.616;12.872;2023-09-08T09:02:21;6.83;;;5.43;;
7683;SDS011;3884;48.616;12.872;2023-09-08T09:04:51;6.80;;;5.80;;
7683;SDS011;3884;48.616;12.872;2023-09-08T09:07:18;7.53;;;5.73;;
7683;SDS011;3884;48.616;12.872;2023-09-08T09:09:46;6.30;;;5.63;;
7683;SDS011;3884;48.616;12.872;2023-09-08T09:12:14;6.47;;;5.37;;
7683;SDS011;3884;48.616;12.872;2023-09-08T09:14:44;6.70;;;5.83;;
7683;SDS011;3884;48.616;12.872;2023-09-08T09:17:13;6.53;;;5.23;;
7683;SDS011;3884;48.616;12.872;2023-09-08T09:19:40;10.20;;;5.97;;
7683;SDS011;3884;48.616;12.872;2023-09-08T09:22:07;6.47;;;5.83;;
7683;SDS011;3884;48.616;12.872;2023-09-08T09:24:34;7.27;;;6.23;;
7683;SDS011;3884;48.616;12.872;2023-09-08T09:27:04;9.77;;;5.83;;
7683;SDS011;3884;48.616;12.872;2023-09-08T09:29:33;6.37;;;5.70;;
7683;SDS011;3884;48.616;12.872;2023-09-08T09:32:02;6.63;;;5.77;;
7683;SDS011;3884;48.616;12.872;2023-09-08T09:34:32;7.63;;;5.77;;
7683;SDS011;3884;48.616;12.872;2023-09-08T09:36:59;6.57;;;5.87;;
7683;SDS011;3884;48.616;12.872;2023-09-08T09:39:26;7.13;;;5.53;;
7683;SDS011;3884;48.616;12.872;2023-09-08T09:41:54;7.13;;;5.67;;
7683;SDS011;3884;48.616;12.872;2023-09-08T09:44:22;6.27;;;5.37;;
7683;SDS011;3884;48.616;12.872;2023-09-08T09:46:52;7.63;;;5.40;;
7683;SDS011;3884;48.616;12.872;2023-09-08T09:49:20;6.83;;;5.27;;
7683;SDS011;3884;48.616;12.872;2023-09-08T09:51:48;5.73;;;5.13;;
7683;SDS011;3884;48.616;12.872;2023-09-08T09:54:19;7.07;;;4.93;;
7683;SDS011;3884;48.616;12.872;2023-09-08T09:56:46;5.80;;;5.20;;
7683;SDS011;3884;48.616;12.872;2023-09-08T09:59:13;8.00;;;5.20;;
7683;SDS011;3884;48.616;12.872;2023-09-08T10:01:41;7.47;;;5.10;;
7683;SDS011;3884;48.616;12.872;2023-09-08T10:04:10;5.97;;;4.50;;
7683;SDS011;3884;48.616;12.872;2023-09-08T10:06:37;5.80;;;4.70;;
7683;SDS011;3884;48.616;12.872;2023-09-08T10:09:05;6.33;;;4.60;;
7683;SDS011;3884;48.616;12.872;2023-09-08T10:11:34;5.30;;;4.40;;
7683;SDS011;3884;48.616;12.872;2023-09-08T10:14:05;5.30;;;4.80;;
7683;SDS011;3884;48.616;12.872;2023-09-08T10:16:36;6.27;;;4.50;;
7683;SDS011;3884;48.616;12.872;2023-09-08T10:19:07;5.30;;;4.83;;
7683;SDS011;3884;48.616;12.872;2023-09-08T10:21:39;5.20;;;4.70;;
7683;SDS011;3884;48.616;12.872;2023-09-08T10:24:09;5.33;;;4.70;;
7683;SDS011;3884;48.616;12.872;2023-09-08T10:26:43;5.03;;;4.53;;
7683;SDS011;3884;48.616;12.872;2023-09-08T10:29:11;5.30;;;4.80;;
7683;SDS011;3884;48.616;12.872;2023-09-08T10:31:39;6.37;;;4.87;;
7683;SDS011;3884;48.616;12.872;2023-09-08T10:34:06;5.67;;;4.50;;
7683;SDS011;3884;48.616;12.872;2023-09-08T10:36:35;7.83;;;5.43;;
7683;SDS011;3884;48.616;12.872;2023-09-08T10:42:20;4.80;;;4.40;;
7683;SDS011;3884;48.616;12.872;2023-09-08T10:44:56;4.83;;;4.27;;
7683;SDS011;3884;48.616;12.872;2023-09-08T10:47:24;5.20;;;4.70;;
7683;SDS011;3884;48.616;12.872;2023-09-08T10:49:52;5.83;;;5.30;;
7683;SDS011;3884;48.616;12.872;2023-09-08T10:52:24;6.87;;;4.63;;
7683;SDS011;3884;48.616;12.872;2023-09-08T10:54:52;5.87;;;4.97;;
7683;SDS011;3884;48.616;12.872;2023-09-08T10:57:21;10.87;;;4.83;;
7683;SDS011;3884;48.616;12.872;2023-09-08T10:59:51;5.10;;;4.57;;
7683;SDS011;3884;48.616;12.872;2023-09-08T11:05:03;5.80;;;4.93;;
7683;SDS011;3884;48.616;12.872;2023-09-08T11:07:34;5.30;;;4.80;;
7683;SDS011;3884;48.616;12.872;2023-09-08T11:10:02;5.33;;;4.40;;
7683;SDS011;3884;48.616;12.872;2023-09-08T11:12:29;5.53;;;4.93;;
7683;SDS011;3884;48.616;12.872;2023-09-08T11:14:57;6.53;;;4.60;;
7683;SDS011;3884;48.616;12.872;2023-09-08T11:17:26;6.13;;;4.57;;
7683;SDS011;3884;48.616;12.872;2023-09-08T11:19:54;5.43;;;4.93;;
7683;SDS011;3884;48.616;12.872;2023-09-08T11:22:22;5.03;;;4.33;;
7683;SDS011;3884;48.616;12.872;2023-09-08T11:24:51;5.10;;;4.50;;
7683;SDS011;3884;48.616;12.872;2023-09-08T11:27:22;6.10;;;4.80;;
7683;SDS011;3884;48.616;12.872;2023-09-08T11:29:49;4.90;;;4.50;;
7683;SDS011;3884;48.616;12.872;2023-09-08T11:32:16;6.63;;;4.60;;
7683;SDS011;3884;48.616;12.872;2023-09-08T11:34:43;5.33;;;4.83;;
7683;SDS011;3884;48.616;12.872;2023-09-08T11:37:10;5.20;;;4.70;;
7683;SDS011;3884;48.616;12.872;2023-09-08T11:39:38;5.80;;;5.00;;
7683;SDS011;3884;48.616;12.872;2023-09-08T11:42:08;5.40;;;4.87;;
7683;SDS011;3884;48.616;12.872;2023-09-08T11:44:36;5.10;;;4.60;;
7683;SDS011;3884;48.616;12.872;2023-09-08T11:47:05;6.77;;;4.90;;
7683;SDS011;3884;48.616;12.872;2023-09-08T11:49:34;5.17;;;4.67;;
7683;SDS011;3884;48.616;12.872;2023-09-08T11:52:26;5.40;;;4.50;;
7683;SDS011;3884;48.616;12.872;2023-09-08T11:54:57;5.23;;;4.80;;
7683;SDS011;3884;48.616;12.872;2023-09-08T11:57:27;8.30;;;4.60;;
7683;SDS011;3884;48.616;12.872;2023-09-08T12:00:02;6.37;;;4.43;;
7683;SDS011;3884;48.616;12.872;2023-09-08T12:02:39;5.97;;;4.33;;
7683;SDS011;3884;48.616;12.872;2023-09-08T12:05:10;5.10;;;4.60;;
7683;SDS011;3884;48.616;12.872;2023-09-08T12:07:38;5.03;;;4.10;;
7683;SDS011;3884;48.616;12.872;2023-09-08T12:10:06;5.43;;;4.70;;
7683;SDS011;3884;48.616;12.872;2023-09-08T12:12:42;5.90;;;5.30;;
7683;SDS011;3884;48.616;12.872;2023-09-08T12:15:10;5.17;;;4.60;;
7683;SDS011;3884;48.616;12.872;2023-09-08T12:17:46;5.17;;;4.60;;
7683;SDS011;3884;48.616;12.872;2023-09-08T12:20:14;5.77;;;4.37;;
7683;SDS011;3884;48.616;12.872;2023-09-08T12:22:47;5.20;;;4.00;;
7683;SDS011;3884;48.616;12.872;2023-09-08T12:25:15;5.43;;;4.53;;
7683;SDS011;3884;48.616;12.872;2023-09-08T12:27:44;6.20;;;4.93;;
7683;SDS011;3884;48.616;12.872;2023-09-08T12:30:16;6.33;;;4.50;;
7683;SDS011;3884;48.616;12.872;2023-09-08T12:32:45;5.97;;;4.40;;
7683;SDS011;3884;48.616;12.872;2023-09-08T12:35:21;5.13;;;4.47;;
7683;SDS011;3884;48.616;12.872;2023-09-08T12:37:52;5.30;;;4.80;;
7683;SDS011;3884;48.616;12.872;2023-09-08T12:40:20;5.93;;;4.93;;
7683;SDS011;3884;48.616;12.872;2023-09-08T12:42:49;6.97;;;4.50;;
7683;SDS011;3884;48.616;12.872;2023-09-08T12:45:16;5.97;;;4.40;;
7683;SDS011;3884;48.616;12.872;2023-09-08T12:47:44;4.87;;;4.47;;
7683;SDS011;3884;48.616;12.872;2023-09-08T12:50:11;5.53;;;4.27;;
7683;SDS011;3884;48.616;12.872;2023-09-08T12:52:39;5.23;;;4.73;;
7683;SDS011;3884;48.616;12.872;2023-09-08T12:55:06;6.30;;;4.70;;
7683;SDS011;3884;48.616;12.872;2023-09-08T12:57:34;5.87;;;4.50;;
7683;SDS011;3884;48.616;12.872;2023-09-08T13:00:04;6.37;;;4.40;;
7683;SDS011;3884;48.616;12.872;2023-09-08T13:02:32;5.00;;;4.50;;
7683;SDS011;3884;48.616;12.872;2023-09-08T13:04:59;4.47;;;4.07;;
7683;SDS011;3884;48.616;12.872;2023-09-08T13:07:26;5.00;;;4.50;;
7683;SDS011;3884;48.616;12.872;2023-09-08T13:09:54;5.50;;;4.50;;
7683;SDS011;3884;48.616;12.872;2023-09-08T13:12:21;5.87;;;4.40;;
7683;SDS011;3884;48.616;12.872;2023-09-08T13:14:48;4.90;;;4.40;;
7683;SDS011;3884;48.616;12.872;2023-09-08T13:17:17;5.33;;;4.83;;
7683;SDS011;3884;48.616;12.872;2023-09-08T13:19:44;4.60;;;4.20;;
7683;SDS011;3884;48.616;12.872;2023-09-08T13:22:11;5.57;;;4.37;;
7683;SDS011;3884;48.616;12.872;2023-09-08T13:24:39;6.70;;;4.63;;
7683;SDS011;3884;48.616;12.872;2023-09-08T13:27:06;4.97;;;4.40;;
7683;SDS011;3884;48.616;12.872;2023-09-08T13:29:34;4.87;;;4.40;;
7683;SDS011;3884;48.616;12.872;2023-09-08T13:32:01;5.40;;;4.87;;
7683;SDS011;3884;48.616;12.872;2023-09-08T13:34:29;6.13;;;4.70;;
7683;SDS011;3884;48.616;12.872;2023-09-08T13:36:57;4.97;;;4.57;;
7683;SDS011;3884;48.616;12.872;2023-09-08T13:39:24;10.23;;;4.40;;
7683;SDS011;3884;48.616;12.872;2023-09-08T13:41:51;8.17;;;4.43;;
7683;SDS011;3884;48.616;12.872;2023-09-08T13:44:19;5.03;;;4.07;;
7683;SDS011;3884;48.616;12.872;2023-09-08T13:46:47;6.00;;;4.57;;
7683;SDS011;3884;48.616;12.872;2023-09-08T13:49:15;4.63;;;4.13;;
7683;SDS011;3884;48.616;12.872;2023-09-08T13:51:43;5.10;;;4.50;;
7683;SDS011;3884;48.616;12.872;2023-09-08T13:54:11;6.27;;;4.43;;
7683;SDS011;3884;48.616;12.872;2023-09-08T13:56:44;4.77;;;4.30;;
7683;SDS011;3884;48.616;12.872;2023-09-08T13:59:12;7.10;;;5.00;;
7683;SDS011;3884;48.616;12.872;2023-09-08T14:01:39;5.47;;;3.90;;
7683;SDS011;3884;48.616;12.872;2023-09-08T14:04:06;6.93;;;4.43;;
7683;SDS011;3884;48.616;12.872;2023-09-08T14:06:33;6.70;;;4.20;;
7683;SDS011;3884;48.616;12.872;2023-09-08T14:09:02;4.40;;;4.00;;
7683;SDS011;3884;48.616;12.872;2023-09-08T14:11:29;6.33;;;4.90;;
7683;SDS011;3884;48.616;12.872;2023-09-08T14:13:57;5.07;;;4.57;;
7683;SDS011;3884;48.616;12.872;2023-09-08T14:16:24;5.50;;;4.53;;
7683;SDS011;3884;48.616;12.872;2023-09-08T14:18:51;6.27;;;4.80;;
7683;SDS011;3884;48.616;12.872;2023-09-08T14:21:18;7.80;;;4.60;;
7683;SDS011;3884;48.616;12.872;2023-09-08T14:23:46;5.97;;;4.50;;
7683;SDS011;3884;48.616;12.872;2023-09-08T14:26:14;5.33;;;4.60;;
7683;SDS011;3884;48.616;12.872;2023-09-08T14:28:44;5.40;;;4.40;;
7683;SDS011;3884;48.616;12.872;2023-09-08T14:31:11;6.40;;;4.70;;
7683;SDS011;3884;48.616;12.872;2023-09-08T14:33:39;5.27;;;4.77;;
7683;SDS011;3884;48.616;12.872;2023-09-08T14:36:06;5.60;;;4.93;;
7683;SDS011;3884;48.616;12.872;2023-09-08T14:38:33;6.60;;;5.27;;
7683;SDS011;3884;48.616;12.872;2023-09-08T14:41:01;6.67;;;4.70;;
7683;SDS011;3884;48.616;12.872;2023-09-08T14:43:30;6.83;;;4.40;;
7683;SDS011;3884;48.616;12.872;2023-09-08T14:45:57;4.87;;;4.40;;
7683;SDS011;3884;48.616;12.872;2023-09-08T14:48:24;6.60;;;4.80;;
7683;SDS011;3884;48.616;12.872;2023-09-08T14:50:54;5.27;;;4.60;;
7683;SDS011;3884;48.616;12.872;2023-09-08T14:53:21;5.83;;;4.87;;
7683;SDS011;3884;48.616;12.872;2023-09-08T14:55:48;6.30;;;5.30;;
7683;SDS011;3884;48.616;12.872;2023-09-08T14:58:15;6.73;;;4.70;;
7683;SDS011;3884;48.616;12.872;2023-09-08T15:00:44;4.93;;;4.47;;
7683;SDS011;3884;48.616;12.872;2023-09-08T15:03:11;9.80;;;4.90;;
7683;SDS011;3884;48.616;12.872;2023-09-08T15:05:38;5.60;;;4.73;;
7683;SDS011;3884;48.616;12.872;2023-09-08T15:08:05;8.23;;;4.80;;
7683;SDS011;3884;48.616;12.872;2023-09-08T15:10:32;4.97;;;4.57;;
7683;SDS011;3884;48.616;12.872;2023-09-08T15:13:00;5.73;;;4.37;;
7683;SDS011;3884;48.616;12.872;2023-09-08T15:15:28;6.87;;;4.60;;